<?xml version="1.0" encoding="UTF-8" standalone="no" ?>
<gpx xmlns="http://www.topografix.com/GPX/1/1" xmlns:xsi="http://www.w3.org/2001/XMLSchema-instance" xsi:schemaLocation="http://www.topografix.com/GPX/1/1 http://www.topografix.com/GPX/1/1/gpx.xsd" version="1.1" creator="VisuGPX - https://www.visugpx.com">
  <metadata>
    <name>Pas de Chabrinel en boucle côté Romeyer (Vercors) - Flore</name>
    <desc><![CDATA[Au départ du terminus de la route en provenance de [b]Romeyer[/b] (au dessus de [b]Fournaire[/b]), altitude 1007m.
Suivre la route forestière jusqu'à [b]Le Château[/b] puis le sentier qui monte SudEst en ZigZag jusqu'à  1400m. De là, on retrouve un sentier "A flanc" pendant 1km et qui propose des superbes points de vue sur le Sud Vercors.
Le sentier s'élève ensuite, passe à côté de la [b]Baraque Forestière du Pison[/b] puis rejoint le [b]GR93[/b] un peu plus loin à l'altitude 1611m.
Suivre le GR91-93 vers le Nord et repérer un kairn qui indique un sentier en direction du [b]Pas de Chabrinel[/b] (et évite de passer par la  [b]Cabane de Pré Peyret[/b]/
Lors de la descente, on laissera le chemin plein ouest (vers le [b]Parking de Beure[/b]) en suivant les indications "[b]Château[/b]".
On retrouve la route forestière ....
D'autres photos là : [url]https://photos.app.goo.gl/QUe4GkDcH8yMXrQ59[/url]
.
Autres sorties dans le Vercors --> [url]https://www.visugpx.com/membres/87/vercors/[/url]]]></desc>
  </metadata>
  <wpt lat="44.805" lon="5.46027">
    <ele>1413.76</ele>
    <name><![CDATA[0000166]]></name>
    <type><![CDATA[Jalon]]></type>
  </wpt>
  <wpt lat="44.806" lon="5.46402">
    <ele>1454.6</ele>
    <name><![CDATA[0000167]]></name>
    <type><![CDATA[Photo]]></type>
  </wpt>
  <wpt lat="44.80756" lon="5.4657">
    <ele>1469.9</ele>
    <name><![CDATA[0000168]]></name>
    <type><![CDATA[Photo]]></type>
  </wpt>
  <wpt lat="44.80922" lon="5.47302">
    <ele>1552.8</ele>
    <name><![CDATA[0000169]]></name>
    <type><![CDATA[Photo]]></type>
  </wpt>
  <wpt lat="44.81233" lon="5.47669">
    <ele>1646.8</ele>
    <name><![CDATA[0000170]]></name>
    <type><![CDATA[Photo]]></type>
  </wpt>
  <wpt lat="44.81848" lon="5.48118">
    <ele>1655.9</ele>
    <name><![CDATA[0000171]]></name>
    <type><![CDATA[Photo]]></type>
  </wpt>
  <wpt lat="44.82396" lon="5.48297">
    <ele>1567.18</ele>
    <name><![CDATA[0000172]]></name>
    <type><![CDATA[Jalon]]></type>
  </wpt>
  <wpt lat="44.82048" lon="5.47676">
    <ele>1372.9</ele>
    <name><![CDATA[0000173]]></name>
    <type><![CDATA[Photo]]></type>
  </wpt>
  <wpt lat="44.81987" lon="5.47611">
    <ele>1359.5</ele>
    <name><![CDATA[0000174]]></name>
    <type><![CDATA[Photo]]></type>
  </wpt>
  <wpt lat="44.81945" lon="5.47524">
    <ele>1335.66</ele>
    <name><![CDATA[0000175]]></name>
    <type><![CDATA[Jalon]]></type>
  </wpt>
  <trk>
    <name><![CDATA[2022-05-26 pas de chabrinel]]></name>
    <desc><![CDATA[<p>Heure de départ: 10:34 26 mai 2022<br/>Heure d'arrivée: 15:29 26 mai 2022<br/>Distance: 11,6 km (04:55)<br/>Temps déplacement: 04:12<br/>Vitesse moyenne: 2,36 km/h<br/>Vitesse moyenne mouv.: 2,76 km/h<br/>Vitesse Max.: 15,52 km/h<br/>Altitude minimale: 1013 m<br/>Altitude maximale: 1653 m<br/>Vitesse de montée: 363,9 m/h<br/>Vitesse de descente: 389,7 m/h<br/>Gain d'altitude: 722 m<br/>Perte d'altitude: 738 m<br/>Temps de montée: 01:59<br/>Temps de descente: 01:53<br/></p><hr align="center" width="480" style="height: 2px; width: 517px"/>]]></desc>
    <trkseg>
      <trkpt lat="44.80678" lon="5.44638">
        <ele>988.04</ele>
        <time>2022-05-26T08:34:17.000Z</time>
      </trkpt>
      <trkpt lat="44.80666" lon="5.44659">
        <ele>1005.57</ele>
        <time>2022-05-26T08:35:59.766Z</time>
      </trkpt>
      <trkpt lat="44.8064" lon="5.44674">
        <ele>1034.74</ele>
        <time>2022-05-26T08:40:30.633Z</time>
      </trkpt>
      <trkpt lat="44.80624" lon="5.44691">
        <ele>1036.05</ele>
        <time>2022-05-26T08:40:37.999Z</time>
      </trkpt>
      <trkpt lat="44.80609" lon="5.44708">
        <ele>1036.15</ele>
        <time>2022-05-26T08:40:40.855Z</time>
      </trkpt>
      <trkpt lat="44.80603" lon="5.44732">
        <ele>1038.48</ele>
        <time>2022-05-26T08:40:53.951Z</time>
      </trkpt>
      <trkpt lat="44.80614" lon="5.44753">
        <ele>1041.58</ele>
        <time>2022-05-26T08:41:15.208Z</time>
      </trkpt>
      <trkpt lat="44.80628" lon="5.44769">
        <ele>1044.04</ele>
        <time>2022-05-26T08:41:35.164Z</time>
      </trkpt>
      <trkpt lat="44.80641" lon="5.44787">
        <ele>1046.01</ele>
        <time>2022-05-26T08:41:53.121Z</time>
      </trkpt>
      <trkpt lat="44.80653" lon="5.44807">
        <ele>1046.77</ele>
        <time>2022-05-26T08:42:12.210Z</time>
      </trkpt>
      <trkpt lat="44.80668" lon="5.44822">
        <ele>1049.16</ele>
        <time>2022-05-26T08:42:40.000Z</time>
      </trkpt>
      <trkpt lat="44.80685" lon="5.44829">
        <ele>1049.92</ele>
        <time>2022-05-26T08:42:55.863Z</time>
      </trkpt>
      <trkpt lat="44.80696" lon="5.4485">
        <ele>1045.82</ele>
        <time>2022-05-26T08:43:10.122Z</time>
      </trkpt>
      <trkpt lat="44.80701" lon="5.44875">
        <ele>1049.55</ele>
        <time>2022-05-26T08:43:30.850Z</time>
      </trkpt>
      <trkpt lat="44.80704" lon="5.44901">
        <ele>1049.77</ele>
        <time>2022-05-26T08:43:54.226Z</time>
      </trkpt>
      <trkpt lat="44.80697" lon="5.44925">
        <ele>1052.46</ele>
        <time>2022-05-26T08:44:17.442Z</time>
      </trkpt>
      <trkpt lat="44.80692" lon="5.44949">
        <ele>1054.45</ele>
        <time>2022-05-26T08:44:36.771Z</time>
      </trkpt>
      <trkpt lat="44.80705" lon="5.44967">
        <ele>1057.84</ele>
        <time>2022-05-26T08:45:11.000Z</time>
      </trkpt>
      <trkpt lat="44.8072" lon="5.44983">
        <ele>1059</ele>
        <time>2022-05-26T08:45:23.289Z</time>
      </trkpt>
      <trkpt lat="44.80735" lon="5.44997">
        <ele>1060.08</ele>
        <time>2022-05-26T08:45:40.004Z</time>
      </trkpt>
      <trkpt lat="44.80753" lon="5.44996">
        <ele>1063.68</ele>
        <time>2022-05-26T08:45:58.944Z</time>
      </trkpt>
      <trkpt lat="44.80771" lon="5.45001">
        <ele>1065.7</ele>
        <time>2022-05-26T08:46:20.848Z</time>
      </trkpt>
      <trkpt lat="44.80783" lon="5.45021">
        <ele>1066.86</ele>
        <time>2022-05-26T08:46:34.266Z</time>
      </trkpt>
      <trkpt lat="44.808" lon="5.45029">
        <ele>1073.17</ele>
        <time>2022-05-26T08:47:45.000Z</time>
      </trkpt>
      <trkpt lat="44.80819" lon="5.45028">
        <ele>1074.43</ele>
        <time>2022-05-26T08:48:00.000Z</time>
      </trkpt>
      <trkpt lat="44.80802" lon="5.45472">
        <ele>1053.75</ele>
        <time>2022-05-26T08:54:40.999Z</time>
      </trkpt>
      <trkpt lat="44.80787" lon="5.45487">
        <ele>1053.73</ele>
        <time>2022-05-26T08:55:03.891Z</time>
      </trkpt>
      <trkpt lat="44.80784" lon="5.45512">
        <ele>1053.09</ele>
        <time>2022-05-26T08:55:47.547Z</time>
      </trkpt>
      <trkpt lat="44.80798" lon="5.45529">
        <ele>1051.43</ele>
        <time>2022-05-26T08:56:14.266Z</time>
      </trkpt>
      <trkpt lat="44.80814" lon="5.45541">
        <ele>1048.3</ele>
        <time>2022-05-26T08:56:36.015Z</time>
      </trkpt>
      <trkpt lat="44.80833" lon="5.45539">
        <ele>1046.93</ele>
        <time>2022-05-26T08:56:54.909Z</time>
      </trkpt>
      <trkpt lat="44.80852" lon="5.45537">
        <ele>1044.87</ele>
        <time>2022-05-26T08:57:10.150Z</time>
      </trkpt>
      <trkpt lat="44.80869" lon="5.45531">
        <ele>1044.09</ele>
        <time>2022-05-26T08:57:23.225Z</time>
      </trkpt>
      <trkpt lat="44.80888" lon="5.45529">
        <ele>1042.37</ele>
        <time>2022-05-26T08:57:43.148Z</time>
      </trkpt>
      <trkpt lat="44.80906" lon="5.4553">
        <ele>1039.7</ele>
        <time>2022-05-26T08:58:04.987Z</time>
      </trkpt>
      <trkpt lat="44.80925" lon="5.45537">
        <ele>1038.11</ele>
        <time>2022-05-26T08:58:20.999Z</time>
      </trkpt>
      <trkpt lat="44.80943" lon="5.45537">
        <ele>1037.24</ele>
        <time>2022-05-26T08:58:34.832Z</time>
      </trkpt>
      <trkpt lat="44.80961" lon="5.45543">
        <ele>1037.79</ele>
        <time>2022-05-26T08:58:49.999Z</time>
      </trkpt>
      <trkpt lat="44.80961" lon="5.45569">
        <ele>1042.82</ele>
        <time>2022-05-26T09:01:11.999Z</time>
      </trkpt>
      <trkpt lat="44.80972" lon="5.4559">
        <ele>1044.13</ele>
        <time>2022-05-26T09:01:29.654Z</time>
      </trkpt>
      <trkpt lat="44.80979" lon="5.45614">
        <ele>1043.69</ele>
        <time>2022-05-26T09:01:48.093Z</time>
      </trkpt>
      <trkpt lat="44.80982" lon="5.45639">
        <ele>1048.05</ele>
        <time>2022-05-26T09:02:12.031Z</time>
      </trkpt>
      <trkpt lat="44.80982" lon="5.45665">
        <ele>1051.45</ele>
        <time>2022-05-26T09:02:37.388Z</time>
      </trkpt>
      <trkpt lat="44.80965" lon="5.45654">
        <ele>1058.29</ele>
        <time>2022-05-26T09:03:15.975Z</time>
      </trkpt>
      <trkpt lat="44.80952" lon="5.45637">
        <ele>1062.05</ele>
        <time>2022-05-26T09:03:39.952Z</time>
      </trkpt>
      <trkpt lat="44.8094" lon="5.45656">
        <ele>1075.51</ele>
        <time>2022-05-26T09:05:06.953Z</time>
      </trkpt>
      <trkpt lat="44.80924" lon="5.45643">
        <ele>1080.11</ele>
        <time>2022-05-26T09:05:52.111Z</time>
      </trkpt>
      <trkpt lat="44.80909" lon="5.4563">
        <ele>1086.22</ele>
        <time>2022-05-26T09:06:27.748Z</time>
      </trkpt>
      <trkpt lat="44.80891" lon="5.45627">
        <ele>1094.57</ele>
        <time>2022-05-26T09:07:21.874Z</time>
      </trkpt>
      <trkpt lat="44.80895" lon="5.45651">
        <ele>1100.86</ele>
        <time>2022-05-26T09:08:42.000Z</time>
      </trkpt>
      <trkpt lat="44.80877" lon="5.4565">
        <ele>1114.97</ele>
        <time>2022-05-26T09:10:24.188Z</time>
      </trkpt>
      <trkpt lat="44.80862" lon="5.45665">
        <ele>1128.79</ele>
        <time>2022-05-26T09:11:48.090Z</time>
      </trkpt>
      <trkpt lat="44.80845" lon="5.4567">
        <ele>1140.81</ele>
        <time>2022-05-26T09:13:02.272Z</time>
      </trkpt>
      <trkpt lat="44.80826" lon="5.45674">
        <ele>1146.74</ele>
        <time>2022-05-26T09:13:34.340Z</time>
      </trkpt>
      <trkpt lat="44.80814" lon="5.45692">
        <ele>1159.72</ele>
        <time>2022-05-26T09:14:57.194Z</time>
      </trkpt>
      <trkpt lat="44.80814" lon="5.45717">
        <ele>1171.58</ele>
        <time>2022-05-26T09:16:33.155Z</time>
      </trkpt>
      <trkpt lat="44.80797" lon="5.45727">
        <ele>1178.76</ele>
        <time>2022-05-26T09:17:17.831Z</time>
      </trkpt>
      <trkpt lat="44.8078" lon="5.45733">
        <ele>1185.57</ele>
        <time>2022-05-26T09:17:53.000Z</time>
      </trkpt>
      <trkpt lat="44.80762" lon="5.45729">
        <ele>1192.9</ele>
        <time>2022-05-26T09:18:33.371Z</time>
      </trkpt>
      <trkpt lat="44.80771" lon="5.4575">
        <ele>1198.68</ele>
        <time>2022-05-26T09:19:15.000Z</time>
      </trkpt>
      <trkpt lat="44.80757" lon="5.45765">
        <ele>1210.15</ele>
        <time>2022-05-26T09:20:20.000Z</time>
      </trkpt>
      <trkpt lat="44.80739" lon="5.45771">
        <ele>1218.99</ele>
        <time>2022-05-26T09:21:12.000Z</time>
      </trkpt>
      <trkpt lat="44.80748" lon="5.45793">
        <ele>1224.32</ele>
        <time>2022-05-26T09:21:49.000Z</time>
      </trkpt>
      <trkpt lat="44.8073" lon="5.45798">
        <ele>1237.65</ele>
        <time>2022-05-26T09:23:14.000Z</time>
      </trkpt>
      <trkpt lat="44.80712" lon="5.45805">
        <ele>1240.72</ele>
        <time>2022-05-26T09:23:29.247Z</time>
      </trkpt>
      <trkpt lat="44.80712" lon="5.45831">
        <ele>1254.7</ele>
        <time>2022-05-26T09:25:36.948Z</time>
      </trkpt>
      <trkpt lat="44.80702" lon="5.45853">
        <ele>1270.24</ele>
        <time>2022-05-26T09:26:52.089Z</time>
      </trkpt>
      <trkpt lat="44.80694" lon="5.45875">
        <ele>1273.86</ele>
        <time>2022-05-26T09:27:22.999Z</time>
      </trkpt>
      <trkpt lat="44.80678" lon="5.45888">
        <ele>1293.84</ele>
        <time>2022-05-26T09:30:13.376Z</time>
      </trkpt>
      <trkpt lat="44.80668" lon="5.4591">
        <ele>1299.49</ele>
        <time>2022-05-26T09:30:49.254Z</time>
      </trkpt>
      <trkpt lat="44.80666" lon="5.45935">
        <ele>1305.87</ele>
        <time>2022-05-26T09:31:32.951Z</time>
      </trkpt>
      <trkpt lat="44.80655" lon="5.45956">
        <ele>1312</ele>
        <time>2022-05-26T09:32:14.999Z</time>
      </trkpt>
      <trkpt lat="44.80642" lon="5.45938">
        <ele>1317.89</ele>
        <time>2022-05-26T09:33:09.148Z</time>
      </trkpt>
      <trkpt lat="44.80634" lon="5.4596">
        <ele>1322.21</ele>
        <time>2022-05-26T09:34:52.228Z</time>
      </trkpt>
      <trkpt lat="44.80619" lon="5.45946">
        <ele>1333.15</ele>
        <time>2022-05-26T09:35:55.999Z</time>
      </trkpt>
      <trkpt lat="44.80617" lon="5.4592">
        <ele>1339.54</ele>
        <time>2022-05-26T09:36:30.999Z</time>
      </trkpt>
      <trkpt lat="44.80599" lon="5.45919">
        <ele>1357.54</ele>
        <time>2022-05-26T09:38:10.795Z</time>
      </trkpt>
      <trkpt lat="44.80595" lon="5.45944">
        <ele>1361.46</ele>
        <time>2022-05-26T09:38:43.388Z</time>
      </trkpt>
      <trkpt lat="44.80589" lon="5.45968">
        <ele>1366.36</ele>
        <time>2022-05-26T09:39:15.897Z</time>
      </trkpt>
      <trkpt lat="44.80576" lon="5.45987">
        <ele>1371.18</ele>
        <time>2022-05-26T09:40:18.411Z</time>
      </trkpt>
      <trkpt lat="44.80559" lon="5.45983">
        <ele>1381.93</ele>
        <time>2022-05-26T09:41:15.876Z</time>
      </trkpt>
      <trkpt lat="44.8056" lon="5.45958">
        <ele>1383.98</ele>
        <time>2022-05-26T09:41:30.913Z</time>
      </trkpt>
      <trkpt lat="44.80544" lon="5.45946">
        <ele>1398.66</ele>
        <time>2022-05-26T09:43:06.999Z</time>
      </trkpt>
      <trkpt lat="44.80531" lon="5.45925">
        <ele>1409.91</ele>
        <time>2022-05-26T09:44:15.227Z</time>
      </trkpt>
      <trkpt lat="44.80515" lon="5.45934">
        <ele>1417.61</ele>
        <time>2022-05-26T09:47:16.999Z</time>
      </trkpt>
      <trkpt lat="44.80513" lon="5.45959">
        <ele>1415.35</ele>
        <time>2022-05-26T09:47:31.994Z</time>
      </trkpt>
      <trkpt lat="44.80513" lon="5.45985">
        <ele>1412.15</ele>
        <time>2022-05-26T09:48:02.810Z</time>
      </trkpt>
      <trkpt lat="44.8051" lon="5.4601">
        <ele>1412.53</ele>
        <time>2022-05-26T09:48:21.999Z</time>
      </trkpt>
      <trkpt lat="44.80499" lon="5.46031">
        <ele>1413.47</ele>
        <time>2022-05-26T09:48:55.999Z</time>
      </trkpt>
      <trkpt lat="44.80505" lon="5.46055">
        <ele>1415.07</ele>
        <time>2022-05-26T09:49:14.813Z</time>
      </trkpt>
      <trkpt lat="44.80514" lon="5.46078">
        <ele>1415.65</ele>
        <time>2022-05-26T09:49:36.052Z</time>
      </trkpt>
      <trkpt lat="44.80519" lon="5.46103">
        <ele>1416.82</ele>
        <time>2022-05-26T09:50:07.149Z</time>
      </trkpt>
      <trkpt lat="44.80533" lon="5.4612">
        <ele>1418.6</ele>
        <time>2022-05-26T09:50:25.000Z</time>
      </trkpt>
      <trkpt lat="44.80546" lon="5.46139">
        <ele>1419.92</ele>
        <time>2022-05-26T09:50:39.388Z</time>
      </trkpt>
      <trkpt lat="44.80558" lon="5.46158">
        <ele>1420.86</ele>
        <time>2022-05-26T09:50:54.587Z</time>
      </trkpt>
      <trkpt lat="44.80562" lon="5.46184">
        <ele>1420.7</ele>
        <time>2022-05-26T09:51:14.216Z</time>
      </trkpt>
      <trkpt lat="44.80562" lon="5.4621">
        <ele>1420.45</ele>
        <time>2022-05-26T09:51:34.754Z</time>
      </trkpt>
      <trkpt lat="44.80565" lon="5.46235">
        <ele>1418.52</ele>
        <time>2022-05-26T09:51:51.051Z</time>
      </trkpt>
      <trkpt lat="44.8056" lon="5.46261">
        <ele>1418.79</ele>
        <time>2022-05-26T09:52:12.189Z</time>
      </trkpt>
      <trkpt lat="44.80556" lon="5.46286">
        <ele>1418.36</ele>
        <time>2022-05-26T09:52:30.048Z</time>
      </trkpt>
      <trkpt lat="44.80557" lon="5.46312">
        <ele>1419.9</ele>
        <time>2022-05-26T09:52:54.156Z</time>
      </trkpt>
      <trkpt lat="44.8057" lon="5.46332">
        <ele>1422.53</ele>
        <time>2022-05-26T09:53:26.347Z</time>
      </trkpt>
      <trkpt lat="44.8058" lon="5.46353">
        <ele>1424.42</ele>
        <time>2022-05-26T09:53:42.713Z</time>
      </trkpt>
      <trkpt lat="44.8059" lon="5.46375">
        <ele>1426.3</ele>
        <time>2022-05-26T09:54:05.069Z</time>
      </trkpt>
      <trkpt lat="44.80598" lon="5.46398">
        <ele>1427.76</ele>
        <time>2022-05-26T09:54:20.056Z</time>
      </trkpt>
      <trkpt lat="44.80616" lon="5.46402">
        <ele>1432.61</ele>
        <time>2022-05-26T09:54:55.172Z</time>
      </trkpt>
      <trkpt lat="44.80633" lon="5.46411">
        <ele>1436.01</ele>
        <time>2022-05-26T09:55:17.155Z</time>
      </trkpt>
      <trkpt lat="44.8065" lon="5.46421">
        <ele>1440.21</ele>
        <time>2022-05-26T09:55:36.048Z</time>
      </trkpt>
      <trkpt lat="44.80658" lon="5.46444">
        <ele>1441.71</ele>
        <time>2022-05-26T09:55:58.000Z</time>
      </trkpt>
      <trkpt lat="44.8066" lon="5.4647">
        <ele>1443.04</ele>
        <time>2022-05-26T09:56:13.352Z</time>
      </trkpt>
      <trkpt lat="44.80663" lon="5.46495">
        <ele>1445.37</ele>
        <time>2022-05-26T09:56:34.854Z</time>
      </trkpt>
      <trkpt lat="44.8068" lon="5.46506">
        <ele>1448.55</ele>
        <time>2022-05-26T09:57:04.171Z</time>
      </trkpt>
      <trkpt lat="44.80696" lon="5.46518">
        <ele>1450.73</ele>
        <time>2022-05-26T09:57:28.568Z</time>
      </trkpt>
      <trkpt lat="44.80711" lon="5.46533">
        <ele>1451.61</ele>
        <time>2022-05-26T09:57:41.696Z</time>
      </trkpt>
      <trkpt lat="44.80725" lon="5.4655">
        <ele>1451.8</ele>
        <time>2022-05-26T09:57:54.474Z</time>
      </trkpt>
      <trkpt lat="44.8074" lon="5.46565">
        <ele>1453.06</ele>
        <time>2022-05-26T09:58:12.152Z</time>
      </trkpt>
      <trkpt lat="44.80758" lon="5.46571">
        <ele>1454.91</ele>
        <time>2022-05-26T09:58:29.000Z</time>
      </trkpt>
      <trkpt lat="44.80776" lon="5.46562">
        <ele>1457.09</ele>
        <time>2022-05-26T09:58:53.000Z</time>
      </trkpt>
      <trkpt lat="44.80781" lon="5.46587">
        <ele>1457.51</ele>
        <time>2022-05-26T10:03:46.000Z</time>
      </trkpt>
      <trkpt lat="44.80783" lon="5.46612">
        <ele>1458.41</ele>
        <time>2022-05-26T10:04:05.148Z</time>
      </trkpt>
      <trkpt lat="44.80784" lon="5.46637">
        <ele>1460.47</ele>
        <time>2022-05-26T10:04:25.129Z</time>
      </trkpt>
      <trkpt lat="44.80786" lon="5.46663">
        <ele>1461.69</ele>
        <time>2022-05-26T10:04:49.000Z</time>
      </trkpt>
      <trkpt lat="44.80798" lon="5.46683">
        <ele>1465.7</ele>
        <time>2022-05-26T10:05:16.571Z</time>
      </trkpt>
      <trkpt lat="44.80806" lon="5.46707">
        <ele>1465.57</ele>
        <time>2022-05-26T10:05:30.792Z</time>
      </trkpt>
      <trkpt lat="44.80816" lon="5.46729">
        <ele>1466.63</ele>
        <time>2022-05-26T10:06:00.236Z</time>
      </trkpt>
      <trkpt lat="44.80832" lon="5.46742">
        <ele>1467.55</ele>
        <time>2022-05-26T10:06:10.855Z</time>
      </trkpt>
      <trkpt lat="44.80846" lon="5.46759">
        <ele>1469.42</ele>
        <time>2022-05-26T10:06:25.912Z</time>
      </trkpt>
      <trkpt lat="44.80837" lon="5.46782">
        <ele>1467.07</ele>
        <time>2022-05-26T10:06:44.395Z</time>
      </trkpt>
      <trkpt lat="44.80823" lon="5.46797">
        <ele>1463.64</ele>
        <time>2022-05-26T10:07:05.448Z</time>
      </trkpt>
      <trkpt lat="44.80812" lon="5.46819">
        <ele>1463.18</ele>
        <time>2022-05-26T10:07:24.094Z</time>
      </trkpt>
      <trkpt lat="44.80805" lon="5.46843">
        <ele>1465.15</ele>
        <time>2022-05-26T10:07:46.791Z</time>
      </trkpt>
      <trkpt lat="44.8081" lon="5.46868">
        <ele>1463.29</ele>
        <time>2022-05-26T10:07:59.910Z</time>
      </trkpt>
      <trkpt lat="44.80812" lon="5.46893">
        <ele>1461.65</ele>
        <time>2022-05-26T10:08:16.000Z</time>
      </trkpt>
      <trkpt lat="44.80819" lon="5.46918">
        <ele>1459.89</ele>
        <time>2022-05-26T10:08:34.847Z</time>
      </trkpt>
      <trkpt lat="44.80832" lon="5.46936">
        <ele>1458.87</ele>
        <time>2022-05-26T10:08:49.675Z</time>
      </trkpt>
      <trkpt lat="44.80841" lon="5.46958">
        <ele>1459.8</ele>
        <time>2022-05-26T10:09:08.432Z</time>
      </trkpt>
      <trkpt lat="44.80855" lon="5.46976">
        <ele>1460.1</ele>
        <time>2022-05-26T10:09:27.150Z</time>
      </trkpt>
      <trkpt lat="44.80867" lon="5.46995">
        <ele>1461.24</ele>
        <time>2022-05-26T10:09:45.000Z</time>
      </trkpt>
      <trkpt lat="44.80875" lon="5.47018">
        <ele>1460.54</ele>
        <time>2022-05-26T10:09:58.000Z</time>
      </trkpt>
      <trkpt lat="44.80893" lon="5.47025">
        <ele>1461.19</ele>
        <time>2022-05-26T10:10:29.156Z</time>
      </trkpt>
      <trkpt lat="44.80907" lon="5.47008">
        <ele>1463.04</ele>
        <time>2022-05-26T10:10:46.411Z</time>
      </trkpt>
      <trkpt lat="44.80925" lon="5.47002">
        <ele>1465.42</ele>
        <time>2022-05-26T10:11:13.927Z</time>
      </trkpt>
      <trkpt lat="44.80943" lon="5.47005">
        <ele>1469.33</ele>
        <time>2022-05-26T10:11:41.856Z</time>
      </trkpt>
      <trkpt lat="44.80946" lon="5.47031">
        <ele>1473.31</ele>
        <time>2022-05-26T10:12:07.815Z</time>
      </trkpt>
      <trkpt lat="44.80939" lon="5.47055">
        <ele>1476.9</ele>
        <time>2022-05-26T10:12:30.347Z</time>
      </trkpt>
      <trkpt lat="44.80932" lon="5.47079">
        <ele>1480.42</ele>
        <time>2022-05-26T10:12:52.789Z</time>
      </trkpt>
      <trkpt lat="44.80923" lon="5.47102">
        <ele>1484.85</ele>
        <time>2022-05-26T10:13:28.015Z</time>
      </trkpt>
      <trkpt lat="44.80916" lon="5.47125">
        <ele>1488.24</ele>
        <time>2022-05-26T10:13:54.352Z</time>
      </trkpt>
      <trkpt lat="44.80917" lon="5.47151">
        <ele>1492.86</ele>
        <time>2022-05-26T10:14:19.108Z</time>
      </trkpt>
      <trkpt lat="44.80912" lon="5.47175">
        <ele>1498.57</ele>
        <time>2022-05-26T10:14:47.816Z</time>
      </trkpt>
      <trkpt lat="44.80894" lon="5.47179">
        <ele>1504.54</ele>
        <time>2022-05-26T10:15:31.992Z</time>
      </trkpt>
      <trkpt lat="44.809" lon="5.47203">
        <ele>1515.39</ele>
        <time>2022-05-26T10:16:51.295Z</time>
      </trkpt>
      <trkpt lat="44.80913" lon="5.47221">
        <ele>1516.97</ele>
        <time>2022-05-26T10:17:10.352Z</time>
      </trkpt>
      <trkpt lat="44.80924" lon="5.47242">
        <ele>1523.75</ele>
        <time>2022-05-26T10:17:54.125Z</time>
      </trkpt>
      <trkpt lat="44.80937" lon="5.47261">
        <ele>1529.08</ele>
        <time>2022-05-26T10:18:34.775Z</time>
      </trkpt>
      <trkpt lat="44.80959" lon="5.47256">
        <ele>1530.18</ele>
        <time>2022-05-26T10:19:42.999Z</time>
      </trkpt>
      <trkpt lat="44.80941" lon="5.47256">
        <ele>1530.06</ele>
        <time>2022-05-26T10:19:50.999Z</time>
      </trkpt>
      <trkpt lat="44.80931" lon="5.47277">
        <ele>1528.98</ele>
        <time>2022-05-26T10:21:11.999Z</time>
      </trkpt>
      <trkpt lat="44.80923" lon="5.473">
        <ele>1529.74</ele>
        <time>2022-05-26T10:22:37.789Z</time>
      </trkpt>
      <trkpt lat="44.80911" lon="5.4732">
        <ele>1531.25</ele>
        <time>2022-05-26T10:22:59.054Z</time>
      </trkpt>
      <trkpt lat="44.80902" lon="5.47342">
        <ele>1533.83</ele>
        <time>2022-05-26T10:23:18.346Z</time>
      </trkpt>
      <trkpt lat="44.80889" lon="5.4736">
        <ele>1536.85</ele>
        <time>2022-05-26T10:23:39.190Z</time>
      </trkpt>
      <trkpt lat="44.80873" lon="5.47373">
        <ele>1538.56</ele>
        <time>2022-05-26T10:23:53.150Z</time>
      </trkpt>
      <trkpt lat="44.80855" lon="5.47382">
        <ele>1541.64</ele>
        <time>2022-05-26T10:24:15.291Z</time>
      </trkpt>
      <trkpt lat="44.80838" lon="5.47392">
        <ele>1545.65</ele>
        <time>2022-05-26T10:24:35.975Z</time>
      </trkpt>
      <trkpt lat="44.80822" lon="5.47404">
        <ele>1548.91</ele>
        <time>2022-05-26T10:24:56.999Z</time>
      </trkpt>
      <trkpt lat="44.80806" lon="5.47418">
        <ele>1552.31</ele>
        <time>2022-05-26T10:25:25.830Z</time>
      </trkpt>
      <trkpt lat="44.80788" lon="5.47422">
        <ele>1561.17</ele>
        <time>2022-05-26T10:26:14.412Z</time>
      </trkpt>
      <trkpt lat="44.80778" lon="5.47443">
        <ele>1566.97</ele>
        <time>2022-05-26T10:26:49.149Z</time>
      </trkpt>
      <trkpt lat="44.80763" lon="5.4746">
        <ele>1571.92</ele>
        <time>2022-05-26T10:27:21.035Z</time>
      </trkpt>
      <trkpt lat="44.80748" lon="5.47473">
        <ele>1575.03</ele>
        <time>2022-05-26T10:27:43.273Z</time>
      </trkpt>
      <trkpt lat="44.80744" lon="5.47498">
        <ele>1579.29</ele>
        <time>2022-05-26T10:28:41.999Z</time>
      </trkpt>
      <trkpt lat="44.8073" lon="5.47514">
        <ele>1580.76</ele>
        <time>2022-05-26T10:29:10.214Z</time>
      </trkpt>
      <trkpt lat="44.8072" lon="5.47535">
        <ele>1584.32</ele>
        <time>2022-05-26T10:29:34.270Z</time>
      </trkpt>
      <trkpt lat="44.80709" lon="5.47556">
        <ele>1588.61</ele>
        <time>2022-05-26T10:30:03.999Z</time>
      </trkpt>
      <trkpt lat="44.80696" lon="5.47573">
        <ele>1594.27</ele>
        <time>2022-05-26T10:30:38.257Z</time>
      </trkpt>
      <trkpt lat="44.80689" lon="5.47596">
        <ele>1599.13</ele>
        <time>2022-05-26T10:31:11.999Z</time>
      </trkpt>
      <trkpt lat="44.80674" lon="5.47612">
        <ele>1601.23</ele>
        <time>2022-05-26T10:31:49.088Z</time>
      </trkpt>
      <trkpt lat="44.80658" lon="5.47624">
        <ele>1604.14</ele>
        <time>2022-05-26T10:32:11.075Z</time>
      </trkpt>
      <trkpt lat="44.80642" lon="5.47635">
        <ele>1607.89</ele>
        <time>2022-05-26T10:32:53.213Z</time>
      </trkpt>
      <trkpt lat="44.80627" lon="5.4765">
        <ele>1607.49</ele>
        <time>2022-05-26T10:36:32.999Z</time>
      </trkpt>
      <trkpt lat="44.80612" lon="5.47664">
        <ele>1603.19</ele>
        <time>2022-05-26T10:37:09.889Z</time>
      </trkpt>
      <trkpt lat="44.80607" lon="5.47688">
        <ele>1601.99</ele>
        <time>2022-05-26T10:38:11.999Z</time>
      </trkpt>
      <trkpt lat="44.80613" lon="5.47663">
        <ele>1603.89</ele>
        <time>2022-05-26T10:38:46.287Z</time>
      </trkpt>
      <trkpt lat="44.80609" lon="5.47638">
        <ele>1604.5</ele>
        <time>2022-05-26T10:39:08.147Z</time>
      </trkpt>
      <trkpt lat="44.806" lon="5.47615">
        <ele>1607.84</ele>
        <time>2022-05-26T10:39:46.231Z</time>
      </trkpt>
      <trkpt lat="44.80583" lon="5.47608">
        <ele>1611.06</ele>
        <time>2022-05-26T10:40:16.000Z</time>
      </trkpt>
      <trkpt lat="44.806" lon="5.47618">
        <ele>1607.42</ele>
        <time>2022-05-26T10:41:36.011Z</time>
      </trkpt>
      <trkpt lat="44.80617" lon="5.47627">
        <ele>1607.38</ele>
        <time>2022-05-26T10:41:51.000Z</time>
      </trkpt>
      <trkpt lat="44.80635" lon="5.47634">
        <ele>1607.05</ele>
        <time>2022-05-26T10:42:05.028Z</time>
      </trkpt>
      <trkpt lat="44.80652" lon="5.47624">
        <ele>1605.09</ele>
        <time>2022-05-26T10:57:48.113Z</time>
      </trkpt>
      <trkpt lat="44.80667" lon="5.47611">
        <ele>1600.85</ele>
        <time>2022-05-26T10:58:11.071Z</time>
      </trkpt>
      <trkpt lat="44.80682" lon="5.47597">
        <ele>1597.42</ele>
        <time>2022-05-26T10:58:36.026Z</time>
      </trkpt>
      <trkpt lat="44.807" lon="5.47592">
        <ele>1596.16</ele>
        <time>2022-05-26T10:58:54.996Z</time>
      </trkpt>
      <trkpt lat="44.80718" lon="5.47587">
        <ele>1596.85</ele>
        <time>2022-05-26T10:59:10.673Z</time>
      </trkpt>
      <trkpt lat="44.80736" lon="5.47583">
        <ele>1596.84</ele>
        <time>2022-05-26T10:59:30.213Z</time>
      </trkpt>
      <trkpt lat="44.80754" lon="5.47576">
        <ele>1598.06</ele>
        <time>2022-05-26T10:59:49.170Z</time>
      </trkpt>
      <trkpt lat="44.80772" lon="5.47568">
        <ele>1600.33</ele>
        <time>2022-05-26T11:00:11.206Z</time>
      </trkpt>
      <trkpt lat="44.8079" lon="5.47572">
        <ele>1602.68</ele>
        <time>2022-05-26T11:00:27.015Z</time>
      </trkpt>
      <trkpt lat="44.80805" lon="5.47586">
        <ele>1604.77</ele>
        <time>2022-05-26T11:00:46.999Z</time>
      </trkpt>
      <trkpt lat="44.80824" lon="5.47588">
        <ele>1607.72</ele>
        <time>2022-05-26T11:01:09.952Z</time>
      </trkpt>
      <trkpt lat="44.80843" lon="5.47584">
        <ele>1610.71</ele>
        <time>2022-05-26T11:01:29.348Z</time>
      </trkpt>
      <trkpt lat="44.8086" lon="5.47587">
        <ele>1615.86</ele>
        <time>2022-05-26T11:02:01.999Z</time>
      </trkpt>
      <trkpt lat="44.80877" lon="5.47598">
        <ele>1619.18</ele>
        <time>2022-05-26T11:02:22.377Z</time>
      </trkpt>
      <trkpt lat="44.80895" lon="5.47606">
        <ele>1622.82</ele>
        <time>2022-05-26T11:02:45.999Z</time>
      </trkpt>
      <trkpt lat="44.80913" lon="5.4761">
        <ele>1627.02</ele>
        <time>2022-05-26T11:03:16.909Z</time>
      </trkpt>
      <trkpt lat="44.8093" lon="5.47615">
        <ele>1629.66</ele>
        <time>2022-05-26T11:03:51.894Z</time>
      </trkpt>
      <trkpt lat="44.80948" lon="5.47607">
        <ele>1632.21</ele>
        <time>2022-05-26T11:04:11.352Z</time>
      </trkpt>
      <trkpt lat="44.80967" lon="5.47605">
        <ele>1633.81</ele>
        <time>2022-05-26T11:04:40.928Z</time>
      </trkpt>
      <trkpt lat="44.80985" lon="5.47605">
        <ele>1634.06</ele>
        <time>2022-05-26T11:04:54.967Z</time>
      </trkpt>
      <trkpt lat="44.81004" lon="5.47609">
        <ele>1633.81</ele>
        <time>2022-05-26T11:05:11.939Z</time>
      </trkpt>
      <trkpt lat="44.81023" lon="5.47611">
        <ele>1634.05</ele>
        <time>2022-05-26T11:05:30.016Z</time>
      </trkpt>
      <trkpt lat="44.81041" lon="5.47608">
        <ele>1635.37</ele>
        <time>2022-05-26T11:05:48.999Z</time>
      </trkpt>
      <trkpt lat="44.81059" lon="5.47606">
        <ele>1636.6</ele>
        <time>2022-05-26T11:06:04.770Z</time>
      </trkpt>
      <trkpt lat="44.81076" lon="5.47597">
        <ele>1636.36</ele>
        <time>2022-05-26T11:06:28.070Z</time>
      </trkpt>
      <trkpt lat="44.81095" lon="5.47592">
        <ele>1636.42</ele>
        <time>2022-05-26T11:06:43.210Z</time>
      </trkpt>
      <trkpt lat="44.81113" lon="5.47596">
        <ele>1635.34</ele>
        <time>2022-05-26T11:07:06.067Z</time>
      </trkpt>
      <trkpt lat="44.81132" lon="5.47597">
        <ele>1631.97</ele>
        <time>2022-05-26T11:07:31.999Z</time>
      </trkpt>
      <trkpt lat="44.81143" lon="5.47619">
        <ele>1630.62</ele>
        <time>2022-05-26T11:07:51.999Z</time>
      </trkpt>
      <trkpt lat="44.81152" lon="5.47641">
        <ele>1631.42</ele>
        <time>2022-05-26T11:08:06.911Z</time>
      </trkpt>
      <trkpt lat="44.81164" lon="5.47661">
        <ele>1632.1</ele>
        <time>2022-05-26T11:08:25.999Z</time>
      </trkpt>
      <trkpt lat="44.81178" lon="5.47677">
        <ele>1631.25</ele>
        <time>2022-05-26T11:08:47.999Z</time>
      </trkpt>
      <trkpt lat="44.81194" lon="5.47664">
        <ele>1631.79</ele>
        <time>2022-05-26T11:09:12.432Z</time>
      </trkpt>
      <trkpt lat="44.81212" lon="5.47655">
        <ele>1631.26</ele>
        <time>2022-05-26T11:09:24.569Z</time>
      </trkpt>
      <trkpt lat="44.81229" lon="5.47662">
        <ele>1630.83</ele>
        <time>2022-05-26T11:09:39.390Z</time>
      </trkpt>
      <trkpt lat="44.81236" lon="5.47685">
        <ele>1630.83</ele>
        <time>2022-05-26T11:10:16.176Z</time>
      </trkpt>
      <trkpt lat="44.81253" lon="5.47697">
        <ele>1630.27</ele>
        <time>2022-05-26T11:10:43.370Z</time>
      </trkpt>
      <trkpt lat="44.81266" lon="5.47714">
        <ele>1632.77</ele>
        <time>2022-05-26T11:11:07.999Z</time>
      </trkpt>
      <trkpt lat="44.81285" lon="5.47716">
        <ele>1634.09</ele>
        <time>2022-05-26T11:11:23.999Z</time>
      </trkpt>
      <trkpt lat="44.81303" lon="5.47719">
        <ele>1633.74</ele>
        <time>2022-05-26T11:11:40.357Z</time>
      </trkpt>
      <trkpt lat="44.81319" lon="5.47731">
        <ele>1633.69</ele>
        <time>2022-05-26T11:11:56.135Z</time>
      </trkpt>
      <trkpt lat="44.81338" lon="5.47729">
        <ele>1634.81</ele>
        <time>2022-05-26T11:12:15.131Z</time>
      </trkpt>
      <trkpt lat="44.81355" lon="5.47738">
        <ele>1636.79</ele>
        <time>2022-05-26T11:12:33.291Z</time>
      </trkpt>
      <trkpt lat="44.81372" lon="5.47729">
        <ele>1637.5</ele>
        <time>2022-05-26T11:12:51.273Z</time>
      </trkpt>
      <trkpt lat="44.8139" lon="5.47726">
        <ele>1641.7</ele>
        <time>2022-05-26T11:13:11.836Z</time>
      </trkpt>
      <trkpt lat="44.81409" lon="5.47725">
        <ele>1644.25</ele>
        <time>2022-05-26T11:13:33.054Z</time>
      </trkpt>
      <trkpt lat="44.81425" lon="5.47713">
        <ele>1645.23</ele>
        <time>2022-05-26T11:14:18.210Z</time>
      </trkpt>
      <trkpt lat="44.81444" lon="5.47713">
        <ele>1647.17</ele>
        <time>2022-05-26T11:15:14.996Z</time>
      </trkpt>
      <trkpt lat="44.81463" lon="5.47715">
        <ele>1649.24</ele>
        <time>2022-05-26T11:15:32.031Z</time>
      </trkpt>
      <trkpt lat="44.81481" lon="5.47719">
        <ele>1650.63</ele>
        <time>2022-05-26T11:16:02.999Z</time>
      </trkpt>
      <trkpt lat="44.815" lon="5.47718">
        <ele>1650.59</ele>
        <time>2022-05-26T11:16:18.808Z</time>
      </trkpt>
      <trkpt lat="44.81518" lon="5.47712">
        <ele>1650.59</ele>
        <time>2022-05-26T11:16:42.999Z</time>
      </trkpt>
      <trkpt lat="44.81536" lon="5.47705">
        <ele>1650.65</ele>
        <time>2022-05-26T11:16:56.652Z</time>
      </trkpt>
      <trkpt lat="44.81554" lon="5.47708">
        <ele>1647.85</ele>
        <time>2022-05-26T11:17:14.999Z</time>
      </trkpt>
      <trkpt lat="44.81569" lon="5.47723">
        <ele>1649.94</ele>
        <time>2022-05-26T11:17:31.091Z</time>
      </trkpt>
      <trkpt lat="44.81584" lon="5.47735">
        <ele>1649.7</ele>
        <time>2022-05-26T11:17:45.829Z</time>
      </trkpt>
      <trkpt lat="44.816" lon="5.47749">
        <ele>1650.8</ele>
        <time>2022-05-26T11:18:00.999Z</time>
      </trkpt>
      <trkpt lat="44.8161" lon="5.4777">
        <ele>1651.76</ele>
        <time>2022-05-26T11:18:20.253Z</time>
      </trkpt>
      <trkpt lat="44.81624" lon="5.47788">
        <ele>1654.92</ele>
        <time>2022-05-26T11:18:42.410Z</time>
      </trkpt>
      <trkpt lat="44.81626" lon="5.47813">
        <ele>1654.8</ele>
        <time>2022-05-26T11:19:14.999Z</time>
      </trkpt>
      <trkpt lat="44.81636" lon="5.47835">
        <ele>1655.3</ele>
        <time>2022-05-26T11:19:31.344Z</time>
      </trkpt>
      <trkpt lat="44.81653" lon="5.47843">
        <ele>1652.47</ele>
        <time>2022-05-26T11:19:51.007Z</time>
      </trkpt>
      <trkpt lat="44.81669" lon="5.47859">
        <ele>1650.9</ele>
        <time>2022-05-26T11:20:35.670Z</time>
      </trkpt>
      <trkpt lat="44.81682" lon="5.47877">
        <ele>1652.85</ele>
        <time>2022-05-26T11:20:52.999Z</time>
      </trkpt>
      <trkpt lat="44.81696" lon="5.47893">
        <ele>1654.21</ele>
        <time>2022-05-26T11:21:08.716Z</time>
      </trkpt>
      <trkpt lat="44.81709" lon="5.47913">
        <ele>1654.38</ele>
        <time>2022-05-26T11:21:56.870Z</time>
      </trkpt>
      <trkpt lat="44.81726" lon="5.47924">
        <ele>1654.28</ele>
        <time>2022-05-26T11:22:13.368Z</time>
      </trkpt>
      <trkpt lat="44.81741" lon="5.47938">
        <ele>1653.65</ele>
        <time>2022-05-26T11:22:28.999Z</time>
      </trkpt>
      <trkpt lat="44.81757" lon="5.47949">
        <ele>1652.66</ele>
        <time>2022-05-26T11:22:48.000Z</time>
      </trkpt>
      <trkpt lat="44.81768" lon="5.47971">
        <ele>1654.12</ele>
        <time>2022-05-26T11:23:03.346Z</time>
      </trkpt>
      <trkpt lat="44.81784" lon="5.47984">
        <ele>1653.37</ele>
        <time>2022-05-26T11:23:17.173Z</time>
      </trkpt>
      <trkpt lat="44.818" lon="5.47996">
        <ele>1650.92</ele>
        <time>2022-05-26T11:23:31.000Z</time>
      </trkpt>
      <trkpt lat="44.81811" lon="5.48017">
        <ele>1650.33</ele>
        <time>2022-05-26T11:23:44.296Z</time>
      </trkpt>
      <trkpt lat="44.81818" lon="5.48042">
        <ele>1649.64</ele>
        <time>2022-05-26T11:24:06.410Z</time>
      </trkpt>
      <trkpt lat="44.81823" lon="5.48067">
        <ele>1648.38</ele>
        <time>2022-05-26T11:25:08.000Z</time>
      </trkpt>
      <trkpt lat="44.81829" lon="5.48092">
        <ele>1645.7</ele>
        <time>2022-05-26T11:25:50.829Z</time>
      </trkpt>
      <trkpt lat="44.8184" lon="5.48113">
        <ele>1642.96</ele>
        <time>2022-05-26T11:26:08.000Z</time>
      </trkpt>
      <trkpt lat="44.81855" lon="5.48128">
        <ele>1638.96</ele>
        <time>2022-05-26T11:26:42.893Z</time>
      </trkpt>
      <trkpt lat="44.81867" lon="5.48147">
        <ele>1635.17</ele>
        <time>2022-05-26T11:27:17.368Z</time>
      </trkpt>
      <trkpt lat="44.8188" lon="5.48167">
        <ele>1632.21</ele>
        <time>2022-05-26T11:27:37.187Z</time>
      </trkpt>
      <trkpt lat="44.81891" lon="5.48188">
        <ele>1630.08</ele>
        <time>2022-05-26T11:27:53.347Z</time>
      </trkpt>
      <trkpt lat="44.81897" lon="5.48212">
        <ele>1629.2</ele>
        <time>2022-05-26T11:28:20.092Z</time>
      </trkpt>
      <trkpt lat="44.81907" lon="5.48233">
        <ele>1629.14</ele>
        <time>2022-05-26T11:28:38.882Z</time>
      </trkpt>
      <trkpt lat="44.81918" lon="5.48255">
        <ele>1628.53</ele>
        <time>2022-05-26T11:28:55.000Z</time>
      </trkpt>
      <trkpt lat="44.81927" lon="5.48278">
        <ele>1627.83</ele>
        <time>2022-05-26T11:29:11.000Z</time>
      </trkpt>
      <trkpt lat="44.81926" lon="5.48305">
        <ele>1628.88</ele>
        <time>2022-05-26T11:29:26.000Z</time>
      </trkpt>
      <trkpt lat="44.81927" lon="5.4833">
        <ele>1630.05</ele>
        <time>2022-05-26T11:29:40.012Z</time>
      </trkpt>
      <trkpt lat="44.81937" lon="5.48353">
        <ele>1629.38</ele>
        <time>2022-05-26T11:29:58.333Z</time>
      </trkpt>
      <trkpt lat="44.81946" lon="5.48376">
        <ele>1630.37</ele>
        <time>2022-05-26T11:30:16.751Z</time>
      </trkpt>
      <trkpt lat="44.8196" lon="5.48391">
        <ele>1628.34</ele>
        <time>2022-05-26T11:30:33.828Z</time>
      </trkpt>
      <trkpt lat="44.81973" lon="5.4841">
        <ele>1628.03</ele>
        <time>2022-05-26T11:30:51.000Z</time>
      </trkpt>
      <trkpt lat="44.81991" lon="5.48405">
        <ele>1628.07</ele>
        <time>2022-05-26T11:31:04.986Z</time>
      </trkpt>
      <trkpt lat="44.82009" lon="5.48414">
        <ele>1625.96</ele>
        <time>2022-05-26T11:31:25.000Z</time>
      </trkpt>
      <trkpt lat="44.82013" lon="5.48439">
        <ele>1623.59</ele>
        <time>2022-05-26T11:31:46.184Z</time>
      </trkpt>
      <trkpt lat="44.82031" lon="5.48444">
        <ele>1621.01</ele>
        <time>2022-05-26T11:32:09.010Z</time>
      </trkpt>
      <trkpt lat="44.82049" lon="5.48448">
        <ele>1617.34</ele>
        <time>2022-05-26T11:32:25.979Z</time>
      </trkpt>
      <trkpt lat="44.82066" lon="5.48458">
        <ele>1616.17</ele>
        <time>2022-05-26T11:32:41.321Z</time>
      </trkpt>
      <trkpt lat="44.82079" lon="5.48476">
        <ele>1616.5</ele>
        <time>2022-05-26T11:32:55.093Z</time>
      </trkpt>
      <trkpt lat="44.82093" lon="5.48494">
        <ele>1617.32</ele>
        <time>2022-05-26T11:33:17.913Z</time>
      </trkpt>
      <trkpt lat="44.82111" lon="5.48495">
        <ele>1615.23</ele>
        <time>2022-05-26T11:33:33.294Z</time>
      </trkpt>
      <trkpt lat="44.82126" lon="5.48481">
        <ele>1614.64</ele>
        <time>2022-05-26T11:33:48.000Z</time>
      </trkpt>
      <trkpt lat="44.82144" lon="5.48473">
        <ele>1614.85</ele>
        <time>2022-05-26T11:34:04.000Z</time>
      </trkpt>
      <trkpt lat="44.82161" lon="5.48464">
        <ele>1616.81</ele>
        <time>2022-05-26T11:35:44.773Z</time>
      </trkpt>
      <trkpt lat="44.82178" lon="5.48475">
        <ele>1618.39</ele>
        <time>2022-05-26T11:36:02.934Z</time>
      </trkpt>
      <trkpt lat="44.82194" lon="5.48487">
        <ele>1618.77</ele>
        <time>2022-05-26T11:36:22.000Z</time>
      </trkpt>
      <trkpt lat="44.82211" lon="5.48496">
        <ele>1618.41</ele>
        <time>2022-05-26T11:36:40.009Z</time>
      </trkpt>
      <trkpt lat="44.8223" lon="5.48497">
        <ele>1616.98</ele>
        <time>2022-05-26T11:36:57.910Z</time>
      </trkpt>
      <trkpt lat="44.82246" lon="5.48486">
        <ele>1616.24</ele>
        <time>2022-05-26T11:37:12.406Z</time>
      </trkpt>
      <trkpt lat="44.82265" lon="5.48484">
        <ele>1617.22</ele>
        <time>2022-05-26T11:37:33.000Z</time>
      </trkpt>
      <trkpt lat="44.8228" lon="5.485">
        <ele>1617.97</ele>
        <time>2022-05-26T11:37:42.180Z</time>
      </trkpt>
      <trkpt lat="44.82296" lon="5.48514">
        <ele>1620.02</ele>
        <time>2022-05-26T11:37:58.381Z</time>
      </trkpt>
      <trkpt lat="44.82303" lon="5.48538">
        <ele>1622.48</ele>
        <time>2022-05-26T11:38:15.798Z</time>
      </trkpt>
      <trkpt lat="44.82309" lon="5.48562">
        <ele>1626.24</ele>
        <time>2022-05-26T11:38:36.396Z</time>
      </trkpt>
      <trkpt lat="44.82312" lon="5.48587">
        <ele>1628.79</ele>
        <time>2022-05-26T11:38:58.000Z</time>
      </trkpt>
      <trkpt lat="44.82329" lon="5.48599">
        <ele>1632.2</ele>
        <time>2022-05-26T11:39:15.631Z</time>
      </trkpt>
      <trkpt lat="44.82347" lon="5.48596">
        <ele>1633.82</ele>
        <time>2022-05-26T11:39:38.012Z</time>
      </trkpt>
      <trkpt lat="44.82349" lon="5.48571">
        <ele>1631.58</ele>
        <time>2022-05-26T11:39:53.048Z</time>
      </trkpt>
      <trkpt lat="44.82354" lon="5.48546">
        <ele>1626.07</ele>
        <time>2022-05-26T11:40:25.000Z</time>
      </trkpt>
      <trkpt lat="44.82372" lon="5.48538">
        <ele>1623.01</ele>
        <time>2022-05-26T11:40:42.521Z</time>
      </trkpt>
      <trkpt lat="44.8239" lon="5.48537">
        <ele>1618.17</ele>
        <time>2022-05-26T11:41:56.251Z</time>
      </trkpt>
      <trkpt lat="44.82408" lon="5.48543">
        <ele>1615.76</ele>
        <time>2022-05-26T11:42:13.870Z</time>
      </trkpt>
      <trkpt lat="44.82424" lon="5.48533">
        <ele>1613.65</ele>
        <time>2022-05-26T11:42:46.368Z</time>
      </trkpt>
      <trkpt lat="44.82441" lon="5.48524">
        <ele>1613.22</ele>
        <time>2022-05-26T11:43:02.000Z</time>
      </trkpt>
      <trkpt lat="44.82451" lon="5.485">
        <ele>1610.52</ele>
        <time>2022-05-26T11:43:26.000Z</time>
      </trkpt>
      <trkpt lat="44.82463" lon="5.48482">
        <ele>1609.17</ele>
        <time>2022-05-26T11:43:40.000Z</time>
      </trkpt>
      <trkpt lat="44.82463" lon="5.48456">
        <ele>1605.33</ele>
        <time>2022-05-26T11:43:59.080Z</time>
      </trkpt>
      <trkpt lat="44.82455" lon="5.48433">
        <ele>1603.14</ele>
        <time>2022-05-26T11:44:16.000Z</time>
      </trkpt>
      <trkpt lat="44.82455" lon="5.48407">
        <ele>1600.07</ele>
        <time>2022-05-26T11:44:38.757Z</time>
      </trkpt>
      <trkpt lat="44.82464" lon="5.48384">
        <ele>1594.42</ele>
        <time>2022-05-26T11:45:09.972Z</time>
      </trkpt>
      <trkpt lat="44.82465" lon="5.48359">
        <ele>1588.57</ele>
        <time>2022-05-26T11:45:35.051Z</time>
      </trkpt>
      <trkpt lat="44.82463" lon="5.48333">
        <ele>1583.29</ele>
        <time>2022-05-26T11:45:54.928Z</time>
      </trkpt>
      <trkpt lat="44.82449" lon="5.48317">
        <ele>1575.89</ele>
        <time>2022-05-26T11:46:25.947Z</time>
      </trkpt>
      <trkpt lat="44.82431" lon="5.4831">
        <ele>1572.26</ele>
        <time>2022-05-26T11:46:44.126Z</time>
      </trkpt>
      <trkpt lat="44.82413" lon="5.48302">
        <ele>1569.95</ele>
        <time>2022-05-26T11:47:05.223Z</time>
      </trkpt>
      <trkpt lat="44.82396" lon="5.48297">
        <ele>1567.32</ele>
        <time>2022-05-26T11:47:46.999Z</time>
      </trkpt>
      <trkpt lat="44.82377" lon="5.48298">
        <ele>1564.76</ele>
        <time>2022-05-26T11:48:13.355Z</time>
      </trkpt>
      <trkpt lat="44.82363" lon="5.48281">
        <ele>1561.76</ele>
        <time>2022-05-26T11:48:37.114Z</time>
      </trkpt>
      <trkpt lat="44.82353" lon="5.48259">
        <ele>1557.28</ele>
        <time>2022-05-26T11:49:14.950Z</time>
      </trkpt>
      <trkpt lat="44.8234" lon="5.48239">
        <ele>1552.38</ele>
        <time>2022-05-26T11:49:44.206Z</time>
      </trkpt>
      <trkpt lat="44.82332" lon="5.48217">
        <ele>1546.15</ele>
        <time>2022-05-26T11:50:23.083Z</time>
      </trkpt>
      <trkpt lat="44.82327" lon="5.48192">
        <ele>1542.39</ele>
        <time>2022-05-26T11:51:06.383Z</time>
      </trkpt>
      <trkpt lat="44.8231" lon="5.48183">
        <ele>1536.18</ele>
        <time>2022-05-26T11:51:41.878Z</time>
      </trkpt>
      <trkpt lat="44.82293" lon="5.48176">
        <ele>1532.17</ele>
        <time>2022-05-26T11:52:28.972Z</time>
      </trkpt>
      <trkpt lat="44.82276" lon="5.48168">
        <ele>1526.91</ele>
        <time>2022-05-26T11:52:51.051Z</time>
      </trkpt>
      <trkpt lat="44.82258" lon="5.48159">
        <ele>1520.12</ele>
        <time>2022-05-26T11:53:24.849Z</time>
      </trkpt>
      <trkpt lat="44.82241" lon="5.48154">
        <ele>1514.72</ele>
        <time>2022-05-26T11:54:21.126Z</time>
      </trkpt>
      <trkpt lat="44.82222" lon="5.48148">
        <ele>1508.83</ele>
        <time>2022-05-26T11:54:45.999Z</time>
      </trkpt>
      <trkpt lat="44.82205" lon="5.48139">
        <ele>1503.82</ele>
        <time>2022-05-26T11:55:12.902Z</time>
      </trkpt>
      <trkpt lat="44.82187" lon="5.48142">
        <ele>1501.35</ele>
        <time>2022-05-26T11:55:47.999Z</time>
      </trkpt>
      <trkpt lat="44.82196" lon="5.48119">
        <ele>1500.66</ele>
        <time>2022-05-26T11:57:52.999Z</time>
      </trkpt>
      <trkpt lat="44.82188" lon="5.48142">
        <ele>1502.2</ele>
        <time>2022-05-26T12:22:54.000Z</time>
      </trkpt>
      <trkpt lat="44.82171" lon="5.48152">
        <ele>1496.91</ele>
        <time>2022-05-26T12:23:37.000Z</time>
      </trkpt>
      <trkpt lat="44.82154" lon="5.48159">
        <ele>1494.73</ele>
        <time>2022-05-26T12:24:02.000Z</time>
      </trkpt>
      <trkpt lat="44.82136" lon="5.48157">
        <ele>1490.31</ele>
        <time>2022-05-26T12:24:35.000Z</time>
      </trkpt>
      <trkpt lat="44.8212" lon="5.48144">
        <ele>1483.63</ele>
        <time>2022-05-26T12:25:05.000Z</time>
      </trkpt>
      <trkpt lat="44.82105" lon="5.48128">
        <ele>1477.79</ele>
        <time>2022-05-26T12:25:42.000Z</time>
      </trkpt>
      <trkpt lat="44.82102" lon="5.48103">
        <ele>1471.14</ele>
        <time>2022-05-26T12:26:14.000Z</time>
      </trkpt>
      <trkpt lat="44.8211" lon="5.4808">
        <ele>1461.54</ele>
        <time>2022-05-26T12:26:49.000Z</time>
      </trkpt>
      <trkpt lat="44.82128" lon="5.48078">
        <ele>1457.67</ele>
        <time>2022-05-26T12:27:08.000Z</time>
      </trkpt>
      <trkpt lat="44.82126" lon="5.48051">
        <ele>1448.06</ele>
        <time>2022-05-26T12:27:51.000Z</time>
      </trkpt>
      <trkpt lat="44.82127" lon="5.48025">
        <ele>1444.52</ele>
        <time>2022-05-26T12:28:13.000Z</time>
      </trkpt>
      <trkpt lat="44.82118" lon="5.48002">
        <ele>1438.49</ele>
        <time>2022-05-26T12:28:38.999Z</time>
      </trkpt>
      <trkpt lat="44.82109" lon="5.47979">
        <ele>1432.9</ele>
        <time>2022-05-26T12:28:57.999Z</time>
      </trkpt>
      <trkpt lat="44.82109" lon="5.47953">
        <ele>1427.81</ele>
        <time>2022-05-26T12:30:31.999Z</time>
      </trkpt>
      <trkpt lat="44.82098" lon="5.47931">
        <ele>1421.78</ele>
        <time>2022-05-26T12:30:50.999Z</time>
      </trkpt>
      <trkpt lat="44.82093" lon="5.47905">
        <ele>1415.81</ele>
        <time>2022-05-26T12:31:08.999Z</time>
      </trkpt>
      <trkpt lat="44.82089" lon="5.4788">
        <ele>1408.16</ele>
        <time>2022-05-26T12:31:31.999Z</time>
      </trkpt>
      <trkpt lat="44.82087" lon="5.47854">
        <ele>1401.77</ele>
        <time>2022-05-26T12:31:58.999Z</time>
      </trkpt>
      <trkpt lat="44.82081" lon="5.4783">
        <ele>1396.12</ele>
        <time>2022-05-26T12:32:20.999Z</time>
      </trkpt>
      <trkpt lat="44.82081" lon="5.47804">
        <ele>1390.64</ele>
        <time>2022-05-26T12:32:44.999Z</time>
      </trkpt>
      <trkpt lat="44.82074" lon="5.4778">
        <ele>1386.52</ele>
        <time>2022-05-26T12:33:38.999Z</time>
      </trkpt>
      <trkpt lat="44.82061" lon="5.47762">
        <ele>1381.8</ele>
        <time>2022-05-26T12:34:15.999Z</time>
      </trkpt>
      <trkpt lat="44.82063" lon="5.47736">
        <ele>1376.61</ele>
        <time>2022-05-26T12:34:37.999Z</time>
      </trkpt>
      <trkpt lat="44.8206" lon="5.47711">
        <ele>1373</ele>
        <time>2022-05-26T12:35:01.999Z</time>
      </trkpt>
      <trkpt lat="44.82053" lon="5.47686">
        <ele>1369.96</ele>
        <time>2022-05-26T12:35:21.999Z</time>
      </trkpt>
      <trkpt lat="44.82039" lon="5.4767">
        <ele>1366.05</ele>
        <time>2022-05-26T12:36:49.999Z</time>
      </trkpt>
      <trkpt lat="44.82023" lon="5.47658">
        <ele>1363.14</ele>
        <time>2022-05-26T12:37:09.999Z</time>
      </trkpt>
      <trkpt lat="44.82009" lon="5.47642">
        <ele>1359.23</ele>
        <time>2022-05-26T12:37:28.999Z</time>
      </trkpt>
      <trkpt lat="44.81996" lon="5.47624">
        <ele>1355.92</ele>
        <time>2022-05-26T12:37:51.999Z</time>
      </trkpt>
      <trkpt lat="44.81983" lon="5.47606">
        <ele>1351.69</ele>
        <time>2022-05-26T12:38:09.999Z</time>
      </trkpt>
      <trkpt lat="44.81971" lon="5.47586">
        <ele>1347.7</ele>
        <time>2022-05-26T12:38:25.999Z</time>
      </trkpt>
      <trkpt lat="44.81962" lon="5.47563">
        <ele>1344.09</ele>
        <time>2022-05-26T12:38:43.999Z</time>
      </trkpt>
      <trkpt lat="44.81953" lon="5.47541">
        <ele>1340.29</ele>
        <time>2022-05-26T12:39:03.999Z</time>
      </trkpt>
      <trkpt lat="44.81942" lon="5.4752">
        <ele>1335.15</ele>
        <time>2022-05-26T12:40:16.999Z</time>
      </trkpt>
      <trkpt lat="44.81925" lon="5.47507">
        <ele>1328.73</ele>
        <time>2022-05-26T12:40:35.999Z</time>
      </trkpt>
      <trkpt lat="44.81911" lon="5.4749">
        <ele>1323.27</ele>
        <time>2022-05-26T12:40:54.999Z</time>
      </trkpt>
      <trkpt lat="44.819" lon="5.47469">
        <ele>1317.6</ele>
        <time>2022-05-26T12:41:11.999Z</time>
      </trkpt>
      <trkpt lat="44.81891" lon="5.47446">
        <ele>1313.31</ele>
        <time>2022-05-26T12:41:27.999Z</time>
      </trkpt>
      <trkpt lat="44.8189" lon="5.4742">
        <ele>1310.01</ele>
        <time>2022-05-26T12:42:02.999Z</time>
      </trkpt>
      <trkpt lat="44.8188" lon="5.47398">
        <ele>1305.46</ele>
        <time>2022-05-26T12:43:00.999Z</time>
      </trkpt>
      <trkpt lat="44.8187" lon="5.47375">
        <ele>1300.54</ele>
        <time>2022-05-26T12:43:20.999Z</time>
      </trkpt>
      <trkpt lat="44.81862" lon="5.47352">
        <ele>1295.61</ele>
        <time>2022-05-26T12:43:37.999Z</time>
      </trkpt>
      <trkpt lat="44.81851" lon="5.47331">
        <ele>1291.01</ele>
        <time>2022-05-26T12:43:55.999Z</time>
      </trkpt>
      <trkpt lat="44.81843" lon="5.47308">
        <ele>1286.2</ele>
        <time>2022-05-26T12:44:13.999Z</time>
      </trkpt>
      <trkpt lat="44.8183" lon="5.47289">
        <ele>1281.63</ele>
        <time>2022-05-26T12:44:31.999Z</time>
      </trkpt>
      <trkpt lat="44.81821" lon="5.47267">
        <ele>1277.89</ele>
        <time>2022-05-26T12:44:48.999Z</time>
      </trkpt>
      <trkpt lat="44.81812" lon="5.47244">
        <ele>1273.67</ele>
        <time>2022-05-26T12:45:07.999Z</time>
      </trkpt>
      <trkpt lat="44.81804" lon="5.47221">
        <ele>1269.19</ele>
        <time>2022-05-26T12:45:25.999Z</time>
      </trkpt>
      <trkpt lat="44.81802" lon="5.47194">
        <ele>1264.94</ele>
        <time>2022-05-26T12:45:44.999Z</time>
      </trkpt>
      <trkpt lat="44.818" lon="5.47169">
        <ele>1260.94</ele>
        <time>2022-05-26T12:46:01.999Z</time>
      </trkpt>
      <trkpt lat="44.81794" lon="5.47144">
        <ele>1256.63</ele>
        <time>2022-05-26T12:46:23.999Z</time>
      </trkpt>
      <trkpt lat="44.81784" lon="5.47123">
        <ele>1251.35</ele>
        <time>2022-05-26T12:46:47.999Z</time>
      </trkpt>
      <trkpt lat="44.81767" lon="5.47111">
        <ele>1246.12</ele>
        <time>2022-05-26T12:47:04.999Z</time>
      </trkpt>
      <trkpt lat="44.81752" lon="5.47097">
        <ele>1242.44</ele>
        <time>2022-05-26T12:47:21.999Z</time>
      </trkpt>
      <trkpt lat="44.81738" lon="5.47079">
        <ele>1238.56</ele>
        <time>2022-05-26T12:47:44.999Z</time>
      </trkpt>
      <trkpt lat="44.81722" lon="5.47066">
        <ele>1235.16</ele>
        <time>2022-05-26T12:48:05.999Z</time>
      </trkpt>
      <trkpt lat="44.81705" lon="5.47059">
        <ele>1232.38</ele>
        <time>2022-05-26T12:48:25.999Z</time>
      </trkpt>
      <trkpt lat="44.81687" lon="5.47053">
        <ele>1228.46</ele>
        <time>2022-05-26T12:48:48.999Z</time>
      </trkpt>
      <trkpt lat="44.81673" lon="5.47036">
        <ele>1225.36</ele>
        <time>2022-05-26T12:49:19.999Z</time>
      </trkpt>
      <trkpt lat="44.81657" lon="5.47025">
        <ele>1220.9</ele>
        <time>2022-05-26T12:49:38.000Z</time>
      </trkpt>
      <trkpt lat="44.8164" lon="5.47015">
        <ele>1217.41</ele>
        <time>2022-05-26T12:49:54.000Z</time>
      </trkpt>
      <trkpt lat="44.81623" lon="5.47002">
        <ele>1215.02</ele>
        <time>2022-05-26T12:50:13.000Z</time>
      </trkpt>
      <trkpt lat="44.81611" lon="5.46983">
        <ele>1213.05</ele>
        <time>2022-05-26T12:50:44.000Z</time>
      </trkpt>
      <trkpt lat="44.81603" lon="5.4696">
        <ele>1209.61</ele>
        <time>2022-05-26T12:51:14.000Z</time>
      </trkpt>
      <trkpt lat="44.8159" lon="5.46943">
        <ele>1207.72</ele>
        <time>2022-05-26T12:51:32.000Z</time>
      </trkpt>
      <trkpt lat="44.81575" lon="5.46926">
        <ele>1205.53</ele>
        <time>2022-05-26T12:51:44.000Z</time>
      </trkpt>
      <trkpt lat="44.81561" lon="5.4691">
        <ele>1203.31</ele>
        <time>2022-05-26T12:52:01.000Z</time>
      </trkpt>
      <trkpt lat="44.81544" lon="5.46896">
        <ele>1201.98</ele>
        <time>2022-05-26T12:52:21.000Z</time>
      </trkpt>
      <trkpt lat="44.81528" lon="5.46885">
        <ele>1199.84</ele>
        <time>2022-05-26T12:52:34.000Z</time>
      </trkpt>
      <trkpt lat="44.81515" lon="5.46867">
        <ele>1198.17</ele>
        <time>2022-05-26T12:52:49.000Z</time>
      </trkpt>
      <trkpt lat="44.815" lon="5.4685">
        <ele>1194.73</ele>
        <time>2022-05-26T12:53:04.000Z</time>
      </trkpt>
      <trkpt lat="44.81493" lon="5.46826">
        <ele>1191.57</ele>
        <time>2022-05-26T12:53:22.000Z</time>
      </trkpt>
      <trkpt lat="44.81511" lon="5.46822">
        <ele>1187.42</ele>
        <time>2022-05-26T12:53:42.000Z</time>
      </trkpt>
      <trkpt lat="44.81529" lon="5.46828">
        <ele>1185.16</ele>
        <time>2022-05-26T12:53:57.000Z</time>
      </trkpt>
      <trkpt lat="44.81548" lon="5.46826">
        <ele>1183.21</ele>
        <time>2022-05-26T12:54:16.000Z</time>
      </trkpt>
      <trkpt lat="44.81566" lon="5.46825">
        <ele>1180.55</ele>
        <time>2022-05-26T12:54:31.000Z</time>
      </trkpt>
      <trkpt lat="44.81584" lon="5.46823">
        <ele>1176.89</ele>
        <time>2022-05-26T12:54:50.000Z</time>
      </trkpt>
      <trkpt lat="44.81582" lon="5.46797">
        <ele>1169.54</ele>
        <time>2022-05-26T12:55:51.000Z</time>
      </trkpt>
      <trkpt lat="44.81569" lon="5.46779">
        <ele>1164.96</ele>
        <time>2022-05-26T12:56:09.000Z</time>
      </trkpt>
      <trkpt lat="44.81552" lon="5.46767">
        <ele>1160.9</ele>
        <time>2022-05-26T12:56:27.000Z</time>
      </trkpt>
      <trkpt lat="44.81537" lon="5.46752">
        <ele>1157.22</ele>
        <time>2022-05-26T12:56:45.000Z</time>
      </trkpt>
      <trkpt lat="44.81524" lon="5.46734">
        <ele>1153.93</ele>
        <time>2022-05-26T12:57:01.000Z</time>
      </trkpt>
      <trkpt lat="44.81511" lon="5.46715">
        <ele>1150.33</ele>
        <time>2022-05-26T12:57:18.000Z</time>
      </trkpt>
      <trkpt lat="44.81499" lon="5.46696">
        <ele>1145.85</ele>
        <time>2022-05-26T12:57:39.000Z</time>
      </trkpt>
      <trkpt lat="44.81485" lon="5.46678">
        <ele>1141.19</ele>
        <time>2022-05-26T12:57:58.000Z</time>
      </trkpt>
      <trkpt lat="44.8147" lon="5.46662">
        <ele>1137.71</ele>
        <time>2022-05-26T12:58:14.000Z</time>
      </trkpt>
      <trkpt lat="44.81456" lon="5.46645">
        <ele>1134.23</ele>
        <time>2022-05-26T12:58:31.000Z</time>
      </trkpt>
      <trkpt lat="44.8144" lon="5.46632">
        <ele>1130.5</ele>
        <time>2022-05-26T12:58:48.000Z</time>
      </trkpt>
      <trkpt lat="44.81427" lon="5.46612">
        <ele>1125.73</ele>
        <time>2022-05-26T12:59:03.000Z</time>
      </trkpt>
      <trkpt lat="44.81418" lon="5.46589">
        <ele>1122.54</ele>
        <time>2022-05-26T12:59:18.000Z</time>
      </trkpt>
      <trkpt lat="44.81408" lon="5.46567">
        <ele>1119.3</ele>
        <time>2022-05-26T12:59:34.000Z</time>
      </trkpt>
      <trkpt lat="44.81396" lon="5.46547">
        <ele>1116.59</ele>
        <time>2022-05-26T12:59:51.000Z</time>
      </trkpt>
      <trkpt lat="44.8138" lon="5.46535">
        <ele>1114.64</ele>
        <time>2022-05-26T13:00:21.000Z</time>
      </trkpt>
      <trkpt lat="44.81364" lon="5.46521">
        <ele>1112.24</ele>
        <time>2022-05-26T13:00:34.000Z</time>
      </trkpt>
      <trkpt lat="44.8135" lon="5.46505">
        <ele>1111.3</ele>
        <time>2022-05-26T13:00:53.000Z</time>
      </trkpt>
      <trkpt lat="44.81333" lon="5.46494">
        <ele>1108.37</ele>
        <time>2022-05-26T13:01:11.000Z</time>
      </trkpt>
      <trkpt lat="44.81316" lon="5.4648">
        <ele>1106.74</ele>
        <time>2022-05-26T13:01:26.000Z</time>
      </trkpt>
      <trkpt lat="44.81301" lon="5.46465">
        <ele>1102.67</ele>
        <time>2022-05-26T13:01:42.000Z</time>
      </trkpt>
      <trkpt lat="44.81283" lon="5.4646">
        <ele>1099.88</ele>
        <time>2022-05-26T13:01:59.000Z</time>
      </trkpt>
      <trkpt lat="44.81265" lon="5.46452">
        <ele>1095.76</ele>
        <time>2022-05-26T13:02:15.000Z</time>
      </trkpt>
      <trkpt lat="44.81249" lon="5.46441">
        <ele>1093.12</ele>
        <time>2022-05-26T13:02:30.000Z</time>
      </trkpt>
      <trkpt lat="44.81231" lon="5.46433">
        <ele>1088.92</ele>
        <time>2022-05-26T13:02:47.000Z</time>
      </trkpt>
      <trkpt lat="44.81213" lon="5.46424">
        <ele>1086.55</ele>
        <time>2022-05-26T13:03:04.000Z</time>
      </trkpt>
      <trkpt lat="44.812" lon="5.46407">
        <ele>1083.41</ele>
        <time>2022-05-26T13:03:28.000Z</time>
      </trkpt>
      <trkpt lat="44.81186" lon="5.4639">
        <ele>1080.08</ele>
        <time>2022-05-26T13:03:45.000Z</time>
      </trkpt>
      <trkpt lat="44.81177" lon="5.46367">
        <ele>1077.9</ele>
        <time>2022-05-26T13:03:58.000Z</time>
      </trkpt>
      <trkpt lat="44.81167" lon="5.46343">
        <ele>1074.81</ele>
        <time>2022-05-26T13:04:12.000Z</time>
      </trkpt>
      <trkpt lat="44.81157" lon="5.46321">
        <ele>1070.62</ele>
        <time>2022-05-26T13:04:32.000Z</time>
      </trkpt>
      <trkpt lat="44.81142" lon="5.46304">
        <ele>1067.38</ele>
        <time>2022-05-26T13:04:47.000Z</time>
      </trkpt>
      <trkpt lat="44.8113" lon="5.46285">
        <ele>1063.61</ele>
        <time>2022-05-26T13:05:06.000Z</time>
      </trkpt>
      <trkpt lat="44.81118" lon="5.46265">
        <ele>1060.31</ele>
        <time>2022-05-26T13:05:23.000Z</time>
      </trkpt>
      <trkpt lat="44.81107" lon="5.46243">
        <ele>1056.87</ele>
        <time>2022-05-26T13:05:40.000Z</time>
      </trkpt>
      <trkpt lat="44.81098" lon="5.4622">
        <ele>1053.76</ele>
        <time>2022-05-26T13:05:54.000Z</time>
      </trkpt>
      <trkpt lat="44.811" lon="5.46194">
        <ele>1049.78</ele>
        <time>2022-05-26T13:06:11.000Z</time>
      </trkpt>
      <trkpt lat="44.81098" lon="5.46168">
        <ele>1045.84</ele>
        <time>2022-05-26T13:06:27.000Z</time>
      </trkpt>
      <trkpt lat="44.81098" lon="5.46142">
        <ele>1042.06</ele>
        <time>2022-05-26T13:06:44.000Z</time>
      </trkpt>
      <trkpt lat="44.81096" lon="5.46116">
        <ele>1037.66</ele>
        <time>2022-05-26T13:07:02.000Z</time>
      </trkpt>
      <trkpt lat="44.81096" lon="5.4609">
        <ele>1035.2</ele>
        <time>2022-05-26T13:07:17.000Z</time>
      </trkpt>
      <trkpt lat="44.81091" lon="5.46064">
        <ele>1031.87</ele>
        <time>2022-05-26T13:07:32.000Z</time>
      </trkpt>
      <trkpt lat="44.81091" lon="5.46039">
        <ele>1030.71</ele>
        <time>2022-05-26T13:07:54.000Z</time>
      </trkpt>
      <trkpt lat="44.81097" lon="5.46015">
        <ele>1027.25</ele>
        <time>2022-05-26T13:08:11.000Z</time>
      </trkpt>
      <trkpt lat="44.81103" lon="5.45989">
        <ele>1025.11</ele>
        <time>2022-05-26T13:09:09.000Z</time>
      </trkpt>
      <trkpt lat="44.81096" lon="5.45964">
        <ele>1024.34</ele>
        <time>2022-05-26T13:09:22.000Z</time>
      </trkpt>
      <trkpt lat="44.81088" lon="5.4594">
        <ele>1022.54</ele>
        <time>2022-05-26T13:09:35.000Z</time>
      </trkpt>
      <trkpt lat="44.81075" lon="5.45923">
        <ele>1023.36</ele>
        <time>2022-05-26T13:09:54.000Z</time>
      </trkpt>
      <trkpt lat="44.81059" lon="5.45907">
        <ele>1024.35</ele>
        <time>2022-05-26T13:10:13.000Z</time>
      </trkpt>
      <trkpt lat="44.81041" lon="5.45912">
        <ele>1025.86</ele>
        <time>2022-05-26T13:10:35.000Z</time>
      </trkpt>
      <trkpt lat="44.8103" lon="5.45933">
        <ele>1027.03</ele>
        <time>2022-05-26T13:10:48.999Z</time>
      </trkpt>
      <trkpt lat="44.81011" lon="5.45937">
        <ele>1027.99</ele>
        <time>2022-05-26T13:11:02.999Z</time>
      </trkpt>
      <trkpt lat="44.80997" lon="5.45921">
        <ele>1029.03</ele>
        <time>2022-05-26T13:11:13.999Z</time>
      </trkpt>
      <trkpt lat="44.80986" lon="5.45899">
        <ele>1029.88</ele>
        <time>2022-05-26T13:11:24.999Z</time>
      </trkpt>
      <trkpt lat="44.8098" lon="5.45874">
        <ele>1031.43</ele>
        <time>2022-05-26T13:11:41.999Z</time>
      </trkpt>
      <trkpt lat="44.8097" lon="5.45851">
        <ele>1032.4</ele>
        <time>2022-05-26T13:11:56.999Z</time>
      </trkpt>
      <trkpt lat="44.80966" lon="5.45825">
        <ele>1034.02</ele>
        <time>2022-05-26T13:12:10.999Z</time>
      </trkpt>
      <trkpt lat="44.80968" lon="5.45798">
        <ele>1034.61</ele>
        <time>2022-05-26T13:12:22.999Z</time>
      </trkpt>
      <trkpt lat="44.80978" lon="5.45775">
        <ele>1036.1</ele>
        <time>2022-05-26T13:12:36.999Z</time>
      </trkpt>
      <trkpt lat="44.80988" lon="5.45752">
        <ele>1036.89</ele>
        <time>2022-05-26T13:12:47.999Z</time>
      </trkpt>
      <trkpt lat="44.80994" lon="5.45727">
        <ele>1037.98</ele>
        <time>2022-05-26T13:13:01.999Z</time>
      </trkpt>
      <trkpt lat="44.81002" lon="5.45703">
        <ele>1039.22</ele>
        <time>2022-05-26T13:13:13.999Z</time>
      </trkpt>
      <trkpt lat="44.8101" lon="5.45679">
        <ele>1039.82</ele>
        <time>2022-05-26T13:13:26.999Z</time>
      </trkpt>
      <trkpt lat="44.81011" lon="5.45653">
        <ele>1041.63</ele>
        <time>2022-05-26T13:13:40.999Z</time>
      </trkpt>
      <trkpt lat="44.81001" lon="5.45631">
        <ele>1043.74</ele>
        <time>2022-05-26T13:13:54.999Z</time>
      </trkpt>
      <trkpt lat="44.80987" lon="5.45612">
        <ele>1045.46</ele>
        <time>2022-05-26T13:14:05.999Z</time>
      </trkpt>
      <trkpt lat="44.80976" lon="5.45591">
        <ele>1046.44</ele>
        <time>2022-05-26T13:14:16.999Z</time>
      </trkpt>
      <trkpt lat="44.80968" lon="5.45568">
        <ele>1046.56</ele>
        <time>2022-05-26T13:14:30.999Z</time>
      </trkpt>
      <trkpt lat="44.80959" lon="5.45546">
        <ele>1046.19</ele>
        <time>2022-05-26T13:14:43.999Z</time>
      </trkpt>
      <trkpt lat="44.8094" lon="5.45538">
        <ele>1045.37</ele>
        <time>2022-05-26T13:15:01.999Z</time>
      </trkpt>
      <trkpt lat="44.80922" lon="5.45534">
        <ele>1046.29</ele>
        <time>2022-05-26T13:15:12.999Z</time>
      </trkpt>
      <trkpt lat="44.80904" lon="5.45531">
        <ele>1047.87</ele>
        <time>2022-05-26T13:15:25.999Z</time>
      </trkpt>
      <trkpt lat="44.80886" lon="5.45524">
        <ele>1049.04</ele>
        <time>2022-05-26T13:15:39.999Z</time>
      </trkpt>
      <trkpt lat="44.80868" lon="5.45531">
        <ele>1050.78</ele>
        <time>2022-05-26T13:16:00.999Z</time>
      </trkpt>
      <trkpt lat="44.8085" lon="5.45535">
        <ele>1052.02</ele>
        <time>2022-05-26T13:16:15.999Z</time>
      </trkpt>
      <trkpt lat="44.8083" lon="5.45538">
        <ele>1054</ele>
        <time>2022-05-26T13:16:28.999Z</time>
      </trkpt>
      <trkpt lat="44.80812" lon="5.45539">
        <ele>1056.21</ele>
        <time>2022-05-26T13:16:42.999Z</time>
      </trkpt>
      <trkpt lat="44.80793" lon="5.45535">
        <ele>1058.75</ele>
        <time>2022-05-26T13:16:56.999Z</time>
      </trkpt>
      <trkpt lat="44.80777" lon="5.45524">
        <ele>1060.7</ele>
        <time>2022-05-26T13:17:10.999Z</time>
      </trkpt>
      <trkpt lat="44.80785" lon="5.45501">
        <ele>1061.43</ele>
        <time>2022-05-26T13:17:23.999Z</time>
      </trkpt>
      <trkpt lat="44.80794" lon="5.45478">
        <ele>1062.35</ele>
        <time>2022-05-26T13:17:37.999Z</time>
      </trkpt>
      <trkpt lat="44.80807" lon="5.45457">
        <ele>1063.61</ele>
        <time>2022-05-26T13:17:51.999Z</time>
      </trkpt>
      <trkpt lat="44.80821" lon="5.45441">
        <ele>1064.47</ele>
        <time>2022-05-26T13:18:05.999Z</time>
      </trkpt>
      <trkpt lat="44.80828" lon="5.45416">
        <ele>1067.56</ele>
        <time>2022-05-26T13:18:25.999Z</time>
      </trkpt>
      <trkpt lat="44.80821" lon="5.45391">
        <ele>1068.35</ele>
        <time>2022-05-26T13:18:38.999Z</time>
      </trkpt>
      <trkpt lat="44.80824" lon="5.45364">
        <ele>1068.92</ele>
        <time>2022-05-26T13:18:49.999Z</time>
      </trkpt>
      <trkpt lat="44.80832" lon="5.45341">
        <ele>1070.14</ele>
        <time>2022-05-26T13:19:04.999Z</time>
      </trkpt>
      <trkpt lat="44.80839" lon="5.45316">
        <ele>1071.61</ele>
        <time>2022-05-26T13:19:18.999Z</time>
      </trkpt>
      <trkpt lat="44.80846" lon="5.45291">
        <ele>1073.07</ele>
        <time>2022-05-26T13:19:32.999Z</time>
      </trkpt>
      <trkpt lat="44.80854" lon="5.45268">
        <ele>1074.62</ele>
        <time>2022-05-26T13:19:45.999Z</time>
      </trkpt>
      <trkpt lat="44.80857" lon="5.45243">
        <ele>1075.7</ele>
        <time>2022-05-26T13:19:59.999Z</time>
      </trkpt>
      <trkpt lat="44.80856" lon="5.45216">
        <ele>1076.76</ele>
        <time>2022-05-26T13:20:14.999Z</time>
      </trkpt>
      <trkpt lat="44.8086" lon="5.4519">
        <ele>1078.2</ele>
        <time>2022-05-26T13:20:27.999Z</time>
      </trkpt>
      <trkpt lat="44.80867" lon="5.45166">
        <ele>1081.64</ele>
        <time>2022-05-26T13:20:40.999Z</time>
      </trkpt>
      <trkpt lat="44.80873" lon="5.45141">
        <ele>1083.71</ele>
        <time>2022-05-26T13:21:20.999Z</time>
      </trkpt>
      <trkpt lat="44.80877" lon="5.45115">
        <ele>1085.24</ele>
        <time>2022-05-26T13:21:34.999Z</time>
      </trkpt>
      <trkpt lat="44.8088" lon="5.45089">
        <ele>1086.73</ele>
        <time>2022-05-26T13:21:46.999Z</time>
      </trkpt>
      <trkpt lat="44.8087" lon="5.45066">
        <ele>1086.78</ele>
        <time>2022-05-26T13:22:00.999Z</time>
      </trkpt>
      <trkpt lat="44.80854" lon="5.45051">
        <ele>1085.49</ele>
        <time>2022-05-26T13:22:11.999Z</time>
      </trkpt>
      <trkpt lat="44.80838" lon="5.45039">
        <ele>1083.26</ele>
        <time>2022-05-26T13:22:22.999Z</time>
      </trkpt>
      <trkpt lat="44.80819" lon="5.45033">
        <ele>1081.91</ele>
        <time>2022-05-26T13:22:35.999Z</time>
      </trkpt>
      <trkpt lat="44.80801" lon="5.45034">
        <ele>1079.21</ele>
        <time>2022-05-26T13:22:47.999Z</time>
      </trkpt>
      <trkpt lat="44.80782" lon="5.45034">
        <ele>1077.6</ele>
        <time>2022-05-26T13:22:58.999Z</time>
      </trkpt>
      <trkpt lat="44.80766" lon="5.45021">
        <ele>1076.44</ele>
        <time>2022-05-26T13:23:10.999Z</time>
      </trkpt>
      <trkpt lat="44.80749" lon="5.4501">
        <ele>1073.82</ele>
        <time>2022-05-26T13:23:22.999Z</time>
      </trkpt>
      <trkpt lat="44.80731" lon="5.45001">
        <ele>1070.76</ele>
        <time>2022-05-26T13:23:34.999Z</time>
      </trkpt>
      <trkpt lat="44.80716" lon="5.44984">
        <ele>1070.09</ele>
        <time>2022-05-26T13:23:44.999Z</time>
      </trkpt>
      <trkpt lat="44.80701" lon="5.44967">
        <ele>1066.44</ele>
        <time>2022-05-26T13:23:55.999Z</time>
      </trkpt>
      <trkpt lat="44.80696" lon="5.44939">
        <ele>1063.66</ele>
        <time>2022-05-26T13:24:04.999Z</time>
      </trkpt>
      <trkpt lat="44.80697" lon="5.44913">
        <ele>1061.79</ele>
        <time>2022-05-26T13:24:13.999Z</time>
      </trkpt>
      <trkpt lat="44.80698" lon="5.44887">
        <ele>1058.51</ele>
        <time>2022-05-26T13:24:25.999Z</time>
      </trkpt>
      <trkpt lat="44.80694" lon="5.44861">
        <ele>1055.3</ele>
        <time>2022-05-26T13:24:38.999Z</time>
      </trkpt>
      <trkpt lat="44.80686" lon="5.44838">
        <ele>1052.78</ele>
        <time>2022-05-26T13:24:51.999Z</time>
      </trkpt>
      <trkpt lat="44.80668" lon="5.44827">
        <ele>1050.48</ele>
        <time>2022-05-26T13:25:04.999Z</time>
      </trkpt>
      <trkpt lat="44.80656" lon="5.44807">
        <ele>1047.75</ele>
        <time>2022-05-26T13:25:17.999Z</time>
      </trkpt>
      <trkpt lat="44.80642" lon="5.44788">
        <ele>1044.85</ele>
        <time>2022-05-26T13:25:25.999Z</time>
      </trkpt>
      <trkpt lat="44.80629" lon="5.44769">
        <ele>1042.59</ele>
        <time>2022-05-26T13:25:36.999Z</time>
      </trkpt>
      <trkpt lat="44.80616" lon="5.44751">
        <ele>1040.25</ele>
        <time>2022-05-26T13:25:49.999Z</time>
      </trkpt>
      <trkpt lat="44.80607" lon="5.44727">
        <ele>1036.7</ele>
        <time>2022-05-26T13:26:04.999Z</time>
      </trkpt>
      <trkpt lat="44.80598" lon="5.44702">
        <ele>1034</ele>
        <time>2022-05-26T13:26:18.999Z</time>
      </trkpt>
      <trkpt lat="44.8059" lon="5.4468">
        <ele>1031.07</ele>
        <time>2022-05-26T13:26:27.999Z</time>
      </trkpt>
      <trkpt lat="44.80582" lon="5.44656">
        <ele>1028.6</ele>
        <time>2022-05-26T13:26:38.999Z</time>
      </trkpt>
      <trkpt lat="44.80577" lon="5.44632">
        <ele>1025.81</ele>
        <time>2022-05-26T13:26:51.999Z</time>
      </trkpt>
      <trkpt lat="44.80571" lon="5.44606">
        <ele>1023.93</ele>
        <time>2022-05-26T13:27:04.999Z</time>
      </trkpt>
      <trkpt lat="44.80566" lon="5.4458">
        <ele>1022.04</ele>
        <time>2022-05-26T13:27:17.999Z</time>
      </trkpt>
      <trkpt lat="44.80561" lon="5.44555">
        <ele>1020.47</ele>
        <time>2022-05-26T13:27:29.999Z</time>
      </trkpt>
      <trkpt lat="44.80563" lon="5.44529">
        <ele>1019.87</ele>
        <time>2022-05-26T13:27:42.999Z</time>
      </trkpt>
      <trkpt lat="44.80581" lon="5.4453">
        <ele>1016.45</ele>
        <time>2022-05-26T13:28:00.999Z</time>
      </trkpt>
      <trkpt lat="44.80591" lon="5.44552">
        <ele>1015.49</ele>
        <time>2022-05-26T13:28:13.999Z</time>
      </trkpt>
      <trkpt lat="44.80601" lon="5.44575">
        <ele>1013.49</ele>
        <time>2022-05-26T13:28:28.999Z</time>
      </trkpt>
      <trkpt lat="44.80608" lon="5.446">
        <ele>1013.19</ele>
        <time>2022-05-26T13:28:40.999Z</time>
      </trkpt>
      <trkpt lat="44.80613" lon="5.44624">
        <ele>1011.3</ele>
        <time>2022-05-26T13:28:54.999Z</time>
      </trkpt>
      <trkpt lat="44.80628" lon="5.44639">
        <ele>1007.75</ele>
        <time>2022-05-26T13:29:19.999Z</time>
      </trkpt>
      <trkpt lat="44.80641" lon="5.44656">
        <ele>1006.05</ele>
        <time>2022-05-26T13:29:49.999Z</time>
      </trkpt>
    </trkseg>
  </trk>
</gpx>